sensor_id;sensor_type;location;lat;lon;timestamp;P1;durP1;ratioP1;P2;durP2;ratioP2
78131;SDS011;67381;47.672;9.380;2023-06-26T00:01:43;9.25;;;5.40;;
78131;SDS011;67381;47.672;9.380;2023-06-26T00:04:10;7.75;;;5.43;;
78131;SDS011;67381;47.672;9.380;2023-06-26T00:06:41;9.05;;;5.68;;
78131;SDS011;67381;47.672;9.380;2023-06-26T00:09:09;8.10;;;4.60;;
78131;SDS011;67381;47.672;9.380;2023-06-26T00:11:36;10.18;;;5.72;;
78131;SDS011;67381;47.672;9.380;2023-06-26T00:14:03;8.95;;;5.65;;
78131;SDS011;67381;47.672;9.380;2023-06-26T00:16:31;9.30;;;5.15;;
78131;SDS011;67381;47.672;9.380;2023-06-26T00:18:58;8.35;;;4.97;;
78131;SDS011;67381;47.672;9.380;2023-06-26T00:21:26;8.82;;;5.78;;
78131;SDS011;67381;47.672;9.380;2023-06-26T00:23:54;10.82;;;4.97;;
78131;SDS011;67381;47.672;9.380;2023-06-26T00:26:21;8.70;;;5.55;;
78131;SDS011;67381;47.672;9.380;2023-06-26T00:28:49;8.45;;;5.25;;
78131;SDS011;67381;47.672;9.380;2023-06-26T00:31:16;10.70;;;5.35;;
78131;SDS011;67381;47.672;9.380;2023-06-26T00:33:44;9.50;;;5.88;;
78131;SDS011;67381;47.672;9.380;2023-06-26T00:36:12;7.55;;;5.00;;
78131;SDS011;67381;47.672;9.380;2023-06-26T00:38:39;9.52;;;5.25;;
78131;SDS011;67381;47.672;9.380;2023-06-26T00:41:06;9.80;;;5.63;;
78131;SDS011;67381;47.672;9.380;2023-06-26T00:43:39;10.30;;;5.82;;
78131;SDS011;67381;47.672;9.380;2023-06-26T00:46:12;7.53;;;4.95;;
78131;SDS011;67381;47.672;9.380;2023-06-26T00:48:44;10.45;;;5.22;;
78131;SDS011;67381;47.672;9.380;2023-06-26T00:51:13;8.00;;;5.03;;
78131;SDS011;67381;47.672;9.380;2023-06-26T00:53:41;7.68;;;5.40;;
78131;SDS011;67381;47.672;9.380;2023-06-26T00:56:10;11.15;;;5.55;;
78131;SDS011;67381;47.672;9.380;2023-06-26T00:58:37;10.55;;;5.75;;
78131;SDS011;67381;47.672;9.380;2023-06-26T01:01:05;9.98;;;5.45;;
78131;SDS011;67381;47.672;9.380;2023-06-26T01:03:35;9.10;;;5.57;;
78131;SDS011;67381;47.672;9.380;2023-06-26T01:06:06;9.68;;;5.95;;
78131;SDS011;67381;47.672;9.380;2023-06-26T01:08:38;10.20;;;5.43;;
78131;SDS011;67381;47.672;9.380;2023-06-26T01:11:06;8.80;;;5.47;;
78131;SDS011;67381;47.672;9.380;2023-06-26T01:13:34;9.45;;;5.70;;
78131;SDS011;67381;47.672;9.380;2023-06-26T01:16:03;11.55;;;5.50;;
78131;SDS011;67381;47.672;9.380;2023-06-26T01:18:31;9.15;;;5.45;;
78131;SDS011;67381;47.672;9.380;2023-06-26T01:20:59;10.25;;;6.28;;
78131;SDS011;67381;47.672;9.380;2023-06-26T01:23:29;9.15;;;6.00;;
78131;SDS011;67381;47.672;9.380;2023-06-26T01:28:45;9.43;;;5.95;;
78131;SDS011;67381;47.672;9.380;2023-06-26T01:31:13;10.02;;;5.40;;
78131;SDS011;67381;47.672;9.380;2023-06-26T01:33:41;7.53;;;5.13;;
78131;SDS011;67381;47.672;9.380;2023-06-26T01:36:10;10.48;;;5.95;;
78131;SDS011;67381;47.672;9.380;2023-06-26T01:38:38;8.43;;;5.85;;
78131;SDS011;67381;47.672;9.380;2023-06-26T01:41:05;10.20;;;6.38;;
78131;SDS011;67381;47.672;9.380;2023-06-26T01:46:27;10.05;;;6.03;;
78131;SDS011;67381;47.672;9.380;2023-06-26T01:49:07;9.88;;;5.72;;
78131;SDS011;67381;47.672;9.380;2023-06-26T01:51:46;7.53;;;5.20;;
78131;SDS011;67381;47.672;9.380;2023-06-26T01:54:19;9.05;;;5.47;;
78131;SDS011;67381;47.672;9.380;2023-06-26T01:56:49;10.13;;;6.28;;
78131;SDS011;67381;47.672;9.380;2023-06-26T01:59:17;8.20;;;5.35;;
78131;SDS011;67381;47.672;9.380;2023-06-26T02:01:46;8.98;;;5.20;;
78131;SDS011;67381;47.672;9.380;2023-06-26T02:04:14;9.60;;;5.97;;
78131;SDS011;67381;47.672;9.380;2023-06-26T02:06:41;10.23;;;5.97;;
78131;SDS011;67381;47.672;9.380;2023-06-26T02:09:09;9.48;;;5.53;;
78131;SDS011;67381;47.672;9.380;2023-06-26T02:11:36;8.82;;;5.68;;
78131;SDS011;67381;47.672;9.380;2023-06-26T02:14:03;11.25;;;5.70;;
78131;SDS011;67381;47.672;9.380;2023-06-26T02:16:31;10.15;;;5.57;;
78131;SDS011;67381;47.672;9.380;2023-06-26T02:18:59;9.73;;;5.55;;
78131;SDS011;67381;47.672;9.380;2023-06-26T02:21:26;10.38;;;5.43;;
78131;SDS011;67381;47.672;9.380;2023-06-26T02:23:56;8.90;;;5.72;;
78131;SDS011;67381;47.672;9.380;2023-06-26T02:26:23;10.27;;;5.93;;
78131;SDS011;67381;47.672;9.380;2023-06-26T02:28:51;11.93;;;6.45;;
78131;SDS011;67381;47.672;9.380;2023-06-26T02:31:18;9.45;;;5.40;;
78131;SDS011;67381;47.672;9.380;2023-06-26T02:33:46;10.02;;;5.53;;
78131;SDS011;67381;47.672;9.380;2023-06-26T02:36:16;8.65;;;5.57;;
78131;SDS011;67381;47.672;9.380;2023-06-26T02:38:44;10.18;;;5.72;;
78131;SDS011;67381;47.672;9.380;2023-06-26T02:41:11;9.63;;;6.03;;
78131;SDS011;67381;47.672;9.380;2023-06-26T02:43:39;9.70;;;5.50;;
78131;SDS011;67381;47.672;9.380;2023-06-26T02:46:06;8.93;;;5.45;;
78131;SDS011;67381;47.672;9.380;2023-06-26T02:48:34;9.32;;;5.57;;
78131;SDS011;67381;47.672;9.380;2023-06-26T02:51:01;9.32;;;5.65;;
78131;SDS011;67381;47.672;9.380;2023-06-26T02:53:31;10.45;;;6.00;;
78131;SDS011;67381;47.672;9.380;2023-06-26T02:55:58;8.80;;;5.20;;
78131;SDS011;67381;47.672;9.380;2023-06-26T02:58:26;9.93;;;5.55;;
78131;SDS011;67381;47.672;9.380;2023-06-26T03:00:53;9.00;;;5.47;;
78131;SDS011;67381;47.672;9.380;2023-06-26T03:03:21;9.75;;;5.82;;
78131;SDS011;67381;47.672;9.380;2023-06-26T03:05:48;8.23;;;5.70;;
78131;SDS011;67381;47.672;9.380;2023-06-26T03:08:16;9.15;;;5.68;;
78131;SDS011;67381;47.672;9.380;2023-06-26T03:10:43;9.32;;;5.60;;
78131;SDS011;67381;47.672;9.380;2023-06-26T03:13:11;8.35;;;5.18;;
78131;SDS011;67381;47.672;9.380;2023-06-26T03:15:39;21.98;;;6.40;;
78131;SDS011;67381;47.672;9.380;2023-06-26T03:18:07;10.48;;;5.57;;
78131;SDS011;67381;47.672;9.380;2023-06-26T03:20:36;11.93;;;6.25;;
78131;SDS011;67381;47.672;9.380;2023-06-26T03:23:04;10.00;;;5.97;;
78131;SDS011;67381;47.672;9.380;2023-06-26T03:25:31;9.48;;;5.70;;
78131;SDS011;67381;47.672;9.380;2023-06-26T03:28:09;10.00;;;6.10;;
78131;SDS011;67381;47.672;9.380;2023-06-26T03:30:37;11.90;;;6.53;;
78131;SDS011;67381;47.672;9.380;2023-06-26T03:33:05;10.75;;;5.75;;
78131;SDS011;67381;47.672;9.380;2023-06-26T03:35:33;11.23;;;7.13;;
78131;SDS011;67381;47.672;9.380;2023-06-26T03:38:01;9.80;;;5.90;;
78131;SDS011;67381;47.672;9.380;2023-06-26T03:40:28;10.10;;;6.10;;
78131;SDS011;67381;47.672;9.380;2023-06-26T03:42:56;9.00;;;5.38;;
78131;SDS011;67381;47.672;9.380;2023-06-26T03:45:24;9.88;;;5.90;;
78131;SDS011;67381;47.672;9.380;2023-06-26T03:47:51;11.55;;;5.80;;
78131;SDS011;67381;47.672;9.380;2023-06-26T03:50:19;9.35;;;5.32;;
78131;SDS011;67381;47.672;9.380;2023-06-26T03:52:46;8.82;;;5.68;;
78131;SDS011;67381;47.672;9.380;2023-06-26T03:55:14;10.18;;;5.97;;
78131;SDS011;67381;47.672;9.380;2023-06-26T03:57:44;9.50;;;5.75;;
78131;SDS011;67381;47.672;9.380;2023-06-26T04:00:13;11.50;;;5.50;;
78131;SDS011;67381;47.672;9.380;2023-06-26T04:02:41;9.35;;;5.35;;
78131;SDS011;67381;47.672;9.380;2023-06-26T04:05:10;12.13;;;5.57;;
78131;SDS011;67381;47.672;9.380;2023-06-26T04:07:38;8.32;;;5.50;;
78131;SDS011;67381;47.672;9.380;2023-06-26T04:10:06;8.63;;;5.85;;
78131;SDS011;67381;47.672;9.380;2023-06-26T04:12:34;10.20;;;5.70;;
78131;SDS011;67381;47.672;9.380;2023-06-26T04:15:01;10.77;;;6.50;;
78131;SDS011;67381;47.672;9.380;2023-06-26T04:17:29;16.30;;;7.40;;
78131;SDS011;67381;47.672;9.380;2023-06-26T04:19:57;9.48;;;6.18;;
78131;SDS011;67381;47.672;9.380;2023-06-26T04:22:24;11.90;;;6.03;;
78131;SDS011;67381;47.672;9.380;2023-06-26T04:24:52;8.43;;;5.95;;
78131;SDS011;67381;47.672;9.380;2023-06-26T04:27:20;12.02;;;6.28;;
78131;SDS011;67381;47.672;9.380;2023-06-26T04:29:47;9.95;;;6.03;;
78131;SDS011;67381;47.672;9.380;2023-06-26T04:32:14;10.60;;;6.22;;
78131;SDS011;67381;47.672;9.380;2023-06-26T04:34:42;9.30;;;5.93;;
78131;SDS011;67381;47.672;9.380;2023-06-26T04:37:12;10.70;;;5.85;;
78131;SDS011;67381;47.672;9.380;2023-06-26T04:39:43;9.38;;;5.45;;
78131;SDS011;67381;47.672;9.380;2023-06-26T04:42:10;8.70;;;5.65;;
78131;SDS011;67381;47.672;9.380;2023-06-26T04:44:41;9.15;;;5.55;;
78131;SDS011;67381;47.672;9.380;2023-06-26T04:47:08;10.63;;;5.80;;
78131;SDS011;67381;47.672;9.380;2023-06-26T04:49:36;9.70;;;5.93;;
78131;SDS011;67381;47.672;9.380;2023-06-26T04:52:05;8.80;;;5.47;;
78131;SDS011;67381;47.672;9.380;2023-06-26T04:54:32;9.73;;;6.00;;
78131;SDS011;67381;47.672;9.380;2023-06-26T04:56:59;10.73;;;5.90;;
78131;SDS011;67381;47.672;9.380;2023-06-26T04:59:27;8.85;;;6.13;;
78131;SDS011;67381;47.672;9.380;2023-06-26T05:01:54;9.63;;;5.53;;
78131;SDS011;67381;47.672;9.380;2023-06-26T05:04:21;10.93;;;5.90;;
78131;SDS011;67381;47.672;9.380;2023-06-26T05:06:50;11.85;;;6.07;;
78131;SDS011;67381;47.672;9.380;2023-06-26T05:09:17;10.38;;;6.00;;
78131;SDS011;67381;47.672;9.380;2023-06-26T05:11:44;10.27;;;5.97;;
78131;SDS011;67381;47.672;9.380;2023-06-26T05:14:12;8.95;;;5.93;;
78131;SDS011;67381;47.672;9.380;2023-06-26T05:16:40;11.60;;;5.82;;
78131;SDS011;67381;47.672;9.380;2023-06-26T05:19:07;11.27;;;6.03;;
78131;SDS011;67381;47.672;9.380;2023-06-26T05:21:35;9.70;;;6.18;;
78131;SDS011;67381;47.672;9.380;2023-06-26T05:24:03;10.70;;;6.13;;
78131;SDS011;67381;47.672;9.380;2023-06-26T05:26:30;9.13;;;5.88;;
78131;SDS011;67381;47.672;9.380;2023-06-26T05:28:58;8.38;;;5.75;;
78131;SDS011;67381;47.672;9.380;2023-06-26T05:31:26;10.32;;;6.05;;
78131;SDS011;67381;47.672;9.380;2023-06-26T05:33:53;9.80;;;5.47;;
78131;SDS011;67381;47.672;9.380;2023-06-26T05:36:22;8.80;;;6.10;;
78131;SDS011;67381;47.672;9.380;2023-06-26T05:38:51;10.13;;;6.30;;
78131;SDS011;67381;47.672;9.380;2023-06-26T05:41:18;9.10;;;6.05;;
78131;SDS011;67381;47.672;9.380;2023-06-26T05:43:46;11.50;;;6.82;;
78131;SDS011;67381;47.672;9.380;2023-06-26T05:46:13;12.70;;;7.07;;
78131;SDS011;67381;47.672;9.380;2023-06-26T05:48:41;12.90;;;6.90;;
78131;SDS011;67381;47.672;9.380;2023-06-26T05:51:08;9.60;;;6.57;;
78131;SDS011;67381;47.672;9.380;2023-06-26T05:53:36;10.85;;;7.32;;
78131;SDS011;67381;47.672;9.380;2023-06-26T05:56:04;8.32;;;6.60;;
78131;SDS011;67381;47.672;9.380;2023-06-26T05:58:31;10.20;;;6.47;;
78131;SDS011;67381;47.672;9.380;2023-06-26T06:01:00;10.88;;;7.18;;
78131;SDS011;67381;47.672;9.380;2023-06-26T06:03:27;11.30;;;7.45;;
78131;SDS011;67381;47.672;9.380;2023-06-26T06:05:54;11.07;;;7.25;;
78131;SDS011;67381;47.672;9.380;2023-06-26T06:08:22;11.10;;;7.70;;
78131;SDS011;67381;47.672;9.380;2023-06-26T06:10:49;9.18;;;6.85;;
78131;SDS011;67381;47.672;9.380;2023-06-26T06:13:17;10.32;;;7.05;;
78131;SDS011;67381;47.672;9.380;2023-06-26T06:15:44;10.27;;;7.25;;
78131;SDS011;67381;47.672;9.380;2023-06-26T06:18:12;10.60;;;7.18;;
78131;SDS011;67381;47.672;9.380;2023-06-26T06:20:39;11.35;;;6.93;;
78131;SDS011;67381;47.672;9.380;2023-06-26T06:23:07;10.60;;;6.28;;
78131;SDS011;67381;47.672;9.380;2023-06-26T06:25:34;9.80;;;7.15;;
78131;SDS011;67381;47.672;9.380;2023-06-26T06:28:01;11.50;;;7.25;;
78131;SDS011;67381;47.672;9.380;2023-06-26T06:30:29;9.77;;;6.82;;
78131;SDS011;67381;47.672;9.380;2023-06-26T06:33:09;11.18;;;7.30;;
78131;SDS011;67381;47.672;9.380;2023-06-26T06:35:36;9.65;;;6.00;;
78131;SDS011;67381;47.672;9.380;2023-06-26T06:38:03;10.35;;;6.63;;
78131;SDS011;67381;47.672;9.380;2023-06-26T06:40:31;13.63;;;7.80;;
78131;SDS011;67381;47.672;9.380;2023-06-26T06:42:58;9.90;;;7.18;;
78131;SDS011;67381;47.672;9.380;2023-06-26T06:45:26;10.68;;;8.13;;
78131;SDS011;67381;47.672;9.380;2023-06-26T06:47:53;10.95;;;6.07;;
78131;SDS011;67381;47.672;9.380;2023-06-26T06:50:20;10.63;;;7.22;;
78131;SDS011;67381;47.672;9.380;2023-06-26T06:52:48;9.48;;;7.18;;
78131;SDS011;67381;47.672;9.380;2023-06-26T06:55:16;10.82;;;6.50;;
78131;SDS011;67381;47.672;9.380;2023-06-26T06:57:43;13.25;;;7.32;;
78131;SDS011;67381;47.672;9.380;2023-06-26T07:00:11;11.35;;;6.95;;
78131;SDS011;67381;47.672;9.380;2023-06-26T07:02:39;10.25;;;7.18;;
78131;SDS011;67381;47.672;9.380;2023-06-26T07:05:09;9.23;;;6.80;;
78131;SDS011;67381;47.672;9.380;2023-06-26T07:07:37;11.95;;;8.02;;
78131;SDS011;67381;47.672;9.380;2023-06-26T07:10:06;11.52;;;7.82;;
78131;SDS011;67381;47.672;9.380;2023-06-26T07:12:35;12.80;;;7.82;;
78131;SDS011;67381;47.672;9.380;2023-06-26T07:15:03;10.10;;;7.78;;
78131;SDS011;67381;47.672;9.380;2023-06-26T07:17:32;10.82;;;7.90;;
78131;SDS011;67381;47.672;9.380;2023-06-26T07:20:00;12.38;;;8.55;;
78131;SDS011;67381;47.672;9.380;2023-06-26T07:22:29;11.80;;;8.25;;
78131;SDS011;67381;47.672;9.380;2023-06-26T07:24:56;11.68;;;8.15;;
78131;SDS011;67381;47.672;9.380;2023-06-26T07:27:23;12.40;;;7.90;;
78131;SDS011;67381;47.672;9.380;2023-06-26T07:29:51;12.52;;;8.27;;
78131;SDS011;67381;47.672;9.380;2023-06-26T07:32:18;11.75;;;8.00;;
78131;SDS011;67381;47.672;9.380;2023-06-26T07:34:46;11.18;;;7.72;;
78131;SDS011;67381;47.672;9.380;2023-06-26T07:37:13;13.18;;;8.13;;
78131;SDS011;67381;47.672;9.380;2023-06-26T07:39:40;11.43;;;8.55;;
78131;SDS011;67381;47.672;9.380;2023-06-26T07:42:08;12.32;;;8.50;;
78131;SDS011;67381;47.672;9.380;2023-06-26T07:44:35;11.65;;;8.60;;
78131;SDS011;67381;47.672;9.380;2023-06-26T07:47:03;13.68;;;8.18;;
78131;SDS011;67381;47.672;9.380;2023-06-26T07:49:31;15.80;;;8.77;;
78131;SDS011;67381;47.672;9.380;2023-06-26T07:51:58;13.88;;;8.05;;
78131;SDS011;67381;47.672;9.380;2023-06-26T07:54:25;12.95;;;7.70;;
78131;SDS011;67381;47.672;9.380;2023-06-26T07:56:57;15.63;;;8.38;;
78131;SDS011;67381;47.672;9.380;2023-06-26T07:59:28;13.35;;;8.23;;
78131;SDS011;67381;47.672;9.380;2023-06-26T08:01:56;12.02;;;7.85;;
78131;SDS011;67381;47.672;9.380;2023-06-26T08:04:25;11.82;;;8.27;;
78131;SDS011;67381;47.672;9.380;2023-06-26T08:06:54;12.82;;;8.40;;
78131;SDS011;67381;47.672;9.380;2023-06-26T08:09:23;11.07;;;7.82;;
78131;SDS011;67381;47.672;9.380;2023-06-26T08:11:52;11.20;;;8.20;;
78131;SDS011;67381;47.672;9.380;2023-06-26T08:14:20;11.98;;;7.88;;
78131;SDS011;67381;47.672;9.380;2023-06-26T08:16:47;11.40;;;7.80;;
78131;SDS011;67381;47.672;9.380;2023-06-26T08:19:15;13.95;;;8.35;;
78131;SDS011;67381;47.672;9.380;2023-06-26T08:21:43;13.70;;;7.80;;
78131;SDS011;67381;47.672;9.380;2023-06-26T08:24:11;12.88;;;8.30;;
78131;SDS011;67381;47.672;9.380;2023-06-26T08:26:46;15.57;;;8.23;;
78131;SDS011;67381;47.672;9.380;2023-06-26T08:29:14;12.50;;;8.32;;
78131;SDS011;67381;47.672;9.380;2023-06-26T08:31:42;12.50;;;7.78;;
78131;SDS011;67381;47.672;9.380;2023-06-26T08:34:09;10.23;;;7.43;;
78131;SDS011;67381;47.672;9.380;2023-06-26T08:36:37;11.82;;;8.48;;
78131;SDS011;67381;47.672;9.380;2023-06-26T08:39:04;11.93;;;7.97;;
78131;SDS011;67381;47.672;9.380;2023-06-26T08:41:32;11.95;;;8.82;;
78131;SDS011;67381;47.672;9.380;2023-06-26T08:44:00;11.73;;;9.00;;
78131;SDS011;67381;47.672;9.380;2023-06-26T08:46:27;13.25;;;7.78;;
78131;SDS011;67381;47.672;9.380;2023-06-26T08:48:56;11.85;;;8.10;;
78131;SDS011;67381;47.672;9.380;2023-06-26T08:51:28;11.65;;;8.18;;
78131;SDS011;67381;47.672;9.380;2023-06-26T08:53:57;11.07;;;8.23;;
78131;SDS011;67381;47.672;9.380;2023-06-26T08:56:40;12.98;;;8.43;;
78131;SDS011;67381;47.672;9.380;2023-06-26T08:59:10;14.20;;;8.35;;
78131;SDS011;67381;47.672;9.380;2023-06-26T09:01:37;13.45;;;7.90;;
78131;SDS011;67381;47.672;9.380;2023-06-26T09:04:05;12.02;;;8.45;;
78131;SDS011;67381;47.672;9.380;2023-06-26T09:06:33;13.95;;;8.23;;
78131;SDS011;67381;47.672;9.380;2023-06-26T09:09:01;12.30;;;7.53;;
78131;SDS011;67381;47.672;9.380;2023-06-26T09:11:30;13.30;;;8.50;;
78131;SDS011;67381;47.672;9.380;2023-06-26T09:13:58;11.77;;;7.72;;
78131;SDS011;67381;47.672;9.380;2023-06-26T09:16:26;11.85;;;7.95;;
78131;SDS011;67381;47.672;9.380;2023-06-26T09:18:55;11.40;;;7.30;;
78131;SDS011;67381;47.672;9.380;2023-06-26T09:21:23;12.05;;;7.78;;
78131;SDS011;67381;47.672;9.380;2023-06-26T09:23:51;10.60;;;7.03;;
78131;SDS011;67381;47.672;9.380;2023-06-26T09:26:20;12.77;;;8.18;;
78131;SDS011;67381;47.672;9.380;2023-06-26T09:28:48;10.40;;;6.82;;
78131;SDS011;67381;47.672;9.380;2023-06-26T09:31:16;11.27;;;7.25;;
78131;SDS011;67381;47.672;9.380;2023-06-26T09:33:47;10.95;;;7.18;;
78131;SDS011;67381;47.672;9.380;2023-06-26T09:36:20;11.13;;;6.50;;
78131;SDS011;67381;47.672;9.380;2023-06-26T09:38:51;10.95;;;7.70;;
78131;SDS011;67381;47.672;9.380;2023-06-26T09:41:19;10.73;;;6.40;;
78131;SDS011;67381;47.672;9.380;2023-06-26T09:43:47;10.68;;;7.20;;
78131;SDS011;67381;47.672;9.380;2023-06-26T09:49:00;9.52;;;6.10;;
78131;SDS011;67381;47.672;9.380;2023-06-26T09:51:29;10.73;;;7.13;;
78131;SDS011;67381;47.672;9.380;2023-06-26T09:54:00;11.30;;;7.07;;
78131;SDS011;67381;47.672;9.380;2023-06-26T09:56:28;11.55;;;7.63;;
78131;SDS011;67381;47.672;9.380;2023-06-26T09:58:57;11.73;;;7.55;;
78131;SDS011;67381;47.672;9.380;2023-06-26T10:01:25;13.15;;;7.10;;
78131;SDS011;67381;47.672;9.380;2023-06-26T10:03:53;9.95;;;6.55;;
78131;SDS011;67381;47.672;9.380;2023-06-26T10:06:26;9.45;;;7.40;;
78131;SDS011;67381;47.672;9.380;2023-06-26T10:08:56;9.63;;;6.28;;
78131;SDS011;67381;47.672;9.380;2023-06-26T10:11:23;9.63;;;7.22;;
78131;SDS011;67381;47.672;9.380;2023-06-26T10:13:52;10.35;;;6.72;;
78131;SDS011;67381;47.672;9.380;2023-06-26T10:16:26;12.15;;;6.95;;
78131;SDS011;67381;47.672;9.380;2023-06-26T10:19:02;10.77;;;7.50;;
78131;SDS011;67381;47.672;9.380;2023-06-26T10:21:34;9.95;;;6.72;;
78131;SDS011;67381;47.672;9.380;2023-06-26T10:24:02;12.25;;;6.30;;
78131;SDS011;67381;47.672;9.380;2023-06-26T10:26:30;9.65;;;5.53;;
78131;SDS011;67381;47.672;9.380;2023-06-26T10:28:59;9.57;;;6.93;;
78131;SDS011;67381;47.672;9.380;2023-06-26T10:31:27;10.70;;;6.90;;
78131;SDS011;67381;47.672;9.380;2023-06-26T10:33:55;11.07;;;6.32;;
78131;SDS011;67381;47.672;9.380;2023-06-26T10:36:30;9.68;;;5.97;;
78131;SDS011;67381;47.672;9.380;2023-06-26T10:38:59;9.65;;;6.45;;
78131;SDS011;67381;47.672;9.380;2023-06-26T10:41:38;8.73;;;5.60;;
78131;SDS011;67381;47.672;9.380;2023-06-26T10:44:16;9.15;;;7.22;;
78131;SDS011;67381;47.672;9.380;2023-06-26T10:46:54;9.75;;;7.10;;
78131;SDS011;67381;47.672;9.380;2023-06-26T10:49:28;9.40;;;6.13;;
78131;SDS011;67381;47.672;9.380;2023-06-26T10:51:56;9.25;;;6.40;;
78131;SDS011;67381;47.672;9.380;2023-06-26T10:54:28;11.43;;;6.85;;
78131;SDS011;67381;47.672;9.380;2023-06-26T10:56:56;9.05;;;6.05;;
78131;SDS011;67381;47.672;9.380;2023-06-26T10:59:25;9.18;;;6.45;;
78131;SDS011;67381;47.672;9.380;2023-06-26T11:02:00;10.65;;;6.55;;
78131;SDS011;67381;47.672;9.380;2023-06-26T11:05:06;9.73;;;5.57;;
78131;SDS011;67381;47.672;9.380;2023-06-26T11:07:26;8.68;;;5.13;;
78131;SDS011;67381;47.672;9.380;2023-06-26T11:10:01;9.85;;;5.15;;
78131;SDS011;67381;47.672;9.380;2023-06-26T11:12:36;8.63;;;6.35;;
78131;SDS011;67381;47.672;9.380;2023-06-26T11:15:09;11.23;;;6.70;;
78131;SDS011;67381;47.672;9.380;2023-06-26T11:17:40;8.73;;;6.13;;
78131;SDS011;67381;47.672;9.380;2023-06-26T11:20:14;8.40;;;6.07;;
78131;SDS011;67381;47.672;9.380;2023-06-26T11:22:43;9.77;;;6.03;;
78131;SDS011;67381;47.672;9.380;2023-06-26T11:25:10;7.43;;;5.35;;
78131;SDS011;67381;47.672;9.380;2023-06-26T11:30:06;10.48;;;6.38;;
78131;SDS011;67381;47.672;9.380;2023-06-26T11:32:34;9.75;;;5.60;;
78131;SDS011;67381;47.672;9.380;2023-06-26T11:35:01;9.82;;;5.18;;
78131;SDS011;67381;47.672;9.380;2023-06-26T11:37:31;7.97;;;5.57;;
78131;SDS011;67381;47.672;9.380;2023-06-26T11:39:59;7.43;;;5.82;;
78131;SDS011;67381;47.672;9.380;2023-06-26T11:42:27;9.38;;;5.65;;
78131;SDS011;67381;47.672;9.380;2023-06-26T11:44:54;7.72;;;5.40;;
78131;SDS011;67381;47.672;9.380;2023-06-26T11:47:22;6.40;;;5.18;;
78131;SDS011;67381;47.672;9.380;2023-06-26T11:49:49;9.20;;;5.57;;
78131;SDS011;67381;47.672;9.380;2023-06-26T11:52:17;6.80;;;4.60;;
78131;SDS011;67381;47.672;9.380;2023-06-26T11:54:44;11.68;;;5.65;;
78131;SDS011;67381;47.672;9.380;2023-06-26T11:57:13;6.60;;;4.95;;
78131;SDS011;67381;47.672;9.380;2023-06-26T11:59:42;6.53;;;4.78;;
78131;SDS011;67381;47.672;9.380;2023-06-26T12:02:10;8.07;;;5.65;;
78131;SDS011;67381;47.672;9.380;2023-06-26T12:04:40;6.70;;;5.07;;
78131;SDS011;67381;47.672;9.380;2023-06-26T12:07:09;7.18;;;5.05;;
78131;SDS011;67381;47.672;9.380;2023-06-26T12:09:43;8.25;;;5.07;;
78131;SDS011;67381;47.672;9.380;2023-06-26T12:12:13;6.82;;;5.18;;
78131;SDS011;67381;47.672;9.380;2023-06-26T12:14:42;7.30;;;5.00;;
78131;SDS011;67381;47.672;9.380;2023-06-26T12:17:10;8.95;;;5.47;;
78131;SDS011;67381;47.672;9.380;2023-06-26T12:19:39;6.38;;;4.88;;
78131;SDS011;67381;47.672;9.380;2023-06-26T12:22:09;9.15;;;5.35;;
78131;SDS011;67381;47.672;9.380;2023-06-26T12:24:38;10.15;;;5.20;;
78131;SDS011;67381;47.672;9.380;2023-06-26T12:27:09;8.15;;;5.15;;
78131;SDS011;67381;47.672;9.380;2023-06-26T12:29:38;9.30;;;5.53;;
78131;SDS011;67381;47.672;9.380;2023-06-26T12:32:08;6.38;;;4.85;;
78131;SDS011;67381;47.672;9.380;2023-06-26T12:34:36;7.57;;;5.70;;
78131;SDS011;67381;47.672;9.380;2023-06-26T12:37:06;9.82;;;5.30;;
78131;SDS011;67381;47.672;9.380;2023-06-26T12:42:22;8.35;;;5.70;;
78131;SDS011;67381;47.672;9.380;2023-06-26T12:44:51;8.02;;;5.20;;
78131;SDS011;67381;47.672;9.380;2023-06-26T12:47:23;6.65;;;5.32;;
78131;SDS011;67381;47.672;9.380;2023-06-26T12:49:51;8.43;;;5.63;;
78131;SDS011;67381;47.672;9.380;2023-06-26T12:52:20;6.80;;;5.03;;
78131;SDS011;67381;47.672;9.380;2023-06-26T12:54:51;7.20;;;5.72;;
78131;SDS011;67381;47.672;9.380;2023-06-26T12:57:20;7.47;;;5.72;;
78131;SDS011;67381;47.672;9.380;2023-06-26T12:59:47;13.45;;;5.95;;
78131;SDS011;67381;47.672;9.380;2023-06-26T13:02:14;9.65;;;5.38;;
78131;SDS011;67381;47.672;9.380;2023-06-26T13:04:42;6.88;;;5.47;;
78131;SDS011;67381;47.672;9.380;2023-06-26T13:07:11;9.60;;;5.53;;
78131;SDS011;67381;47.672;9.380;2023-06-26T13:09:39;8.07;;;5.95;;
78131;SDS011;67381;47.672;9.380;2023-06-26T13:12:08;9.65;;;5.93;;
78131;SDS011;67381;47.672;9.380;2023-06-26T13:14:35;12.55;;;6.43;;
78131;SDS011;67381;47.672;9.380;2023-06-26T13:17:03;7.63;;;5.90;;
78131;SDS011;67381;47.672;9.380;2023-06-26T13:19:31;7.18;;;5.13;;
78131;SDS011;67381;47.672;9.380;2023-06-26T13:21:58;9.18;;;5.68;;
78131;SDS011;67381;47.672;9.380;2023-06-26T13:24:27;8.15;;;5.32;;
78131;SDS011;67381;47.672;9.380;2023-06-26T13:26:54;11.23;;;5.47;;
78131;SDS011;67381;47.672;9.380;2023-06-26T13:29:22;10.48;;;5.22;;
78131;SDS011;67381;47.672;9.380;2023-06-26T13:31:49;9.93;;;5.85;;
78131;SDS011;67381;47.672;9.380;2023-06-26T13:34:20;10.77;;;5.88;;
78131;SDS011;67381;47.672;9.380;2023-06-26T13:36:49;8.98;;;5.30;;
78131;SDS011;67381;47.672;9.380;2023-06-26T13:39:16;8.57;;;5.75;;
78131;SDS011;67381;47.672;9.380;2023-06-26T13:41:44;9.02;;;6.30;;
78131;SDS011;67381;47.672;9.380;2023-06-26T13:44:12;13.18;;;6.00;;
78131;SDS011;67381;47.672;9.380;2023-06-26T13:46:39;14.85;;;6.25;;
78131;SDS011;67381;47.672;9.380;2023-06-26T13:49:06;9.45;;;6.38;;
78131;SDS011;67381;47.672;9.380;2023-06-26T13:51:34;10.20;;;5.95;;
78131;SDS011;67381;47.672;9.380;2023-06-26T13:54:01;8.98;;;5.35;;
78131;SDS011;67381;47.672;9.380;2023-06-26T13:56:30;10.75;;;5.88;;
78131;SDS011;67381;47.672;9.380;2023-06-26T13:58:57;12.82;;;6.07;;
78131;SDS011;67381;47.672;9.380;2023-06-26T14:01:25;8.32;;;5.82;;
78131;SDS011;67381;47.672;9.380;2023-06-26T14:03:53;10.27;;;5.97;;
78131;SDS011;67381;47.672;9.380;2023-06-26T14:06:20;9.43;;;5.78;;
78131;SDS011;67381;47.672;9.380;2023-06-26T14:08:47;8.10;;;6.10;;
78131;SDS011;67381;47.672;9.380;2023-06-26T14:11:15;8.43;;;5.45;;
78131;SDS011;67381;47.672;9.380;2023-06-26T14:13:42;11.35;;;5.22;;
78131;SDS011;67381;47.672;9.380;2023-06-26T14:16:10;6.97;;;5.60;;
78131;SDS011;67381;47.672;9.380;2023-06-26T14:18:37;8.25;;;5.78;;
78131;SDS011;67381;47.672;9.380;2023-06-26T14:21:05;7.60;;;5.47;;
78131;SDS011;67381;47.672;9.380;2023-06-26T14:23:32;9.18;;;6.30;;
78131;SDS011;67381;47.672;9.380;2023-06-26T14:26:00;7.80;;;5.50;;
78131;SDS011;67381;47.672;9.380;2023-06-26T14:28:27;8.77;;;5.70;;
78131;SDS011;67381;47.672;9.380;2023-06-26T14:30:55;8.93;;;5.53;;
78131;SDS011;67381;47.672;9.380;2023-06-26T14:33:22;9.75;;;6.05;;
78131;SDS011;67381;47.672;9.380;2023-06-26T14:35:49;9.18;;;5.38;;
78131;SDS011;67381;47.672;9.380;2023-06-26T14:38:17;9.50;;;6.13;;
78131;SDS011;67381;47.672;9.380;2023-06-26T14:40:44;6.95;;;5.55;;
78131;SDS011;67381;47.672;9.380;2023-06-26T14:43:12;9.13;;;6.32;;
78131;SDS011;67381;47.672;9.380;2023-06-26T14:45:39;10.70;;;5.88;;
78131;SDS011;67381;47.672;9.380;2023-06-26T14:48:07;9.75;;;6.28;;
78131;SDS011;67381;47.672;9.380;2023-06-26T14:50:34;8.73;;;6.07;;
78131;SDS011;67381;47.672;9.380;2023-06-26T14:53:01;8.38;;;6.70;;
78131;SDS011;67381;47.672;9.380;2023-06-26T14:55:29;7.78;;;5.85;;
78131;SDS011;67381;47.672;9.380;2023-06-26T14:57:57;7.90;;;5.82;;
78131;SDS011;67381;47.672;9.380;2023-06-26T15:00:24;7.82;;;5.88;;
78131;SDS011;67381;47.672;9.380;2023-06-26T15:02:53;7.82;;;5.97;;